Impacts METAR Board
IDs:

KPDX - Portland Intl Arpt, OR, US

Updated at: 1700 UTC 22 May 2018
Potential Impact None Slight Moderate High
Time 22/05Z 22/06Z 22/07Z 22/08Z 22/09Z 22/10Z 22/11Z 22/12Z 22/13Z 22/14Z 22/15Z 22/16Z 22/17Z
Temp64 63 61 59 58 56 57 56 54 56 58 62 64
Dewpt51 51 51 52 51 50 51 51 50 50 50 51 52
Altim29.95 29.95 29.95 29.95 29.94 29.94 29.94 29.94 29.94 29.94 29.95 29.94 29.93
VIS10 10 10 10 10 10 10 10 10 10 10 10 10
CIG-- -- -- -- -- -- -- -- -- -- -- -- --
CoverCLRCLRCLRCLRCLRCLRCLRCLRCLRCLRFEWCLRCLR
FltCatVFRVFRVFRVFRVFRVFRVFRVFRVFRVFRVFRVFRVFR
WX--------------------------
WDir2902902903203203200000300290
WSpd6 4 3 4 3 5 0 0 0 0 3 3 4
WGst-- -- -- -- -- -- -- -- -- -- -- -- --
Raw hourly METARs
KPDX 220453Z 29006KT 10SM CLR 18/11 A2995 RMK AO2 SLP141 T01780106
KPDX 220553Z 29004KT 10SM CLR 17/11 A2995 RMK AO2 SLP141 T01720106 10228 20167 53004 $
KPDX 220653Z 29003KT 10SM CLR 16/11 A2995 RMK AO2 SLP140 T01610106 $
KPDX 220753Z 32004KT 10SM CLR 15/11 A2995 RMK AO2 SLP139 T01500111 402280100 $
KPDX 220853Z 32003KT 10SM CLR 14/11 A2994 RMK AO2 SLP138 T01440106 58003 $
KPDX 220953Z 32005KT 10SM CLR 13/10 A2994 RMK AO2 SLP138 T01330100 $
KPDX 221053Z 00000KT 10SM CLR 14/11 A2994 RMK AO2 SLP138 T01390106 $
KPDX 221153Z 00000KT 10SM CLR 13/11 A2994 RMK AO2 SLP136 T01330106 10172 20128 58002
KPDX 221253Z 00000KT 10SM CLR 12/10 A2994 RMK AO2 SLP136 T01220100
KPDX 221353Z 00000KT 10SM CLR 13/10 A2994 RMK AO2 SLP139 T01330100
KPDX 221453Z 03003KT 10SM FEW015 14/10 A2995 RMK AO2 SLP139 T01440100 53003
KPDX 221553Z VRB03KT 10SM CLR 17/11 A2994 RMK AO2 SLP138 T01670106
KPDX 221653Z 29004KT 10SM CLR 18/11 A2993 RMK AO2 SLP133 T01780111



Page loaded:  17:53 UTC  |   10:53 AM Pacific  |   11:53 AM Mountain  |   12:53 PM Central  |   01:53 PM Eastern

 

ADVISORIES

FORECASTS

FORECASTS

OBSERVATIONS

USER TOOLS

ABOUT US